sensor_id;sensor_type;location;lat;lon;timestamp;P1;durP1;ratioP1;P2;durP2;ratioP2
25922;SDS011;13725;51.170;4.442;2022-09-16T00:01:09;4.75;;;0.82;;
25922;SDS011;13725;51.170;4.442;2022-09-16T00:03:38;6.15;;;1.05;;
25922;SDS011;13725;51.170;4.442;2022-09-16T00:06:04;6.47;;;1.23;;
25922;SDS011;13725;51.170;4.442;2022-09-16T00:08:31;3.75;;;0.85;;
25922;SDS011;13725;51.170;4.442;2022-09-16T00:11:01;6.85;;;1.40;;
25922;SDS011;13725;51.170;4.442;2022-09-16T00:13:27;8.13;;;1.10;;
25922;SDS011;13725;51.170;4.442;2022-09-16T00:15:53;7.90;;;0.95;;
25922;SDS011;13725;51.170;4.442;2022-09-16T00:18:19;10.55;;;1.05;;
25922;SDS011;13725;51.170;4.442;2022-09-16T00:20:45;6.95;;;1.25;;
25922;SDS011;13725;51.170;4.442;2022-09-16T00:23:13;4.28;;;0.95;;
25922;SDS011;13725;51.170;4.442;2022-09-16T00:25:39;6.88;;;1.58;;
25922;SDS011;13725;51.170;4.442;2022-09-16T00:28:05;2.97;;;0.65;;
25922;SDS011;13725;51.170;4.442;2022-09-16T00:30:30;4.57;;;1.40;;
25922;SDS011;13725;51.170;4.442;2022-09-16T00:32:56;4.90;;;1.10;;
25922;SDS011;13725;51.170;4.442;2022-09-16T00:35:22;7.20;;;0.82;;
25922;SDS011;13725;51.170;4.442;2022-09-16T00:37:48;4.00;;;0.98;;
25922;SDS011;13725;51.170;4.442;2022-09-16T00:40:13;5.20;;;0.90;;
25922;SDS011;13725;51.170;4.442;2022-09-16T00:42:39;4.47;;;1.00;;
25922;SDS011;13725;51.170;4.442;2022-09-16T00:45:16;5.85;;;0.90;;
25922;SDS011;13725;51.170;4.442;2022-09-16T00:47:47;9.52;;;1.20;;
25922;SDS011;13725;51.170;4.442;2022-09-16T00:50:21;8.57;;;1.67;;
25922;SDS011;13725;51.170;4.442;2022-09-16T00:52:52;8.60;;;0.80;;
25922;SDS011;13725;51.170;4.442;2022-09-16T00:55:21;8.00;;;1.30;;
25922;SDS011;13725;51.170;4.442;2022-09-16T00:57:49;3.67;;;1.20;;
25922;SDS011;13725;51.170;4.442;2022-09-16T01:00:16;7.93;;;1.13;;
25922;SDS011;13725;51.170;4.442;2022-09-16T01:02:43;2.72;;;1.20;;
25922;SDS011;13725;51.170;4.442;2022-09-16T01:05:11;7.80;;;1.13;;
25922;SDS011;13725;51.170;4.442;2022-09-16T01:07:41;4.80;;;1.17;;
25922;SDS011;13725;51.170;4.442;2022-09-16T01:10:10;7.18;;;2.30;;
25922;SDS011;13725;51.170;4.442;2022-09-16T01:12:37;4.80;;;0.93;;
25922;SDS011;13725;51.170;4.442;2022-09-16T01:15:06;7.68;;;1.15;;
25922;SDS011;13725;51.170;4.442;2022-09-16T01:17:42;5.22;;;0.90;;
25922;SDS011;13725;51.170;4.442;2022-09-16T01:34:37;5.00;;;0.77;;
25922;SDS011;13725;51.170;4.442;2022-09-16T01:37:26;8.32;;;1.20;;
25922;SDS011;13725;51.170;4.442;2022-09-16T01:43:07;1.60;;;0.85;;
25922;SDS011;13725;51.170;4.442;2022-09-16T01:45:54;5.93;;;1.95;;
25922;SDS011;13725;51.170;4.442;2022-09-16T01:51:22;3.15;;;1.13;;
25922;SDS011;13725;51.170;4.442;2022-09-16T01:53:52;8.05;;;0.90;;
25922;SDS011;13725;51.170;4.442;2022-09-16T01:56:41;3.53;;;1.23;;
25922;SDS011;13725;51.170;4.442;2022-09-16T02:00:12;6.43;;;1.10;;
25922;SDS011;13725;51.170;4.442;2022-09-16T02:02:38;3.92;;;0.93;;
25922;SDS011;13725;51.170;4.442;2022-09-16T02:05:21;4.63;;;1.02;;
25922;SDS011;13725;51.170;4.442;2022-09-16T02:07:54;3.05;;;0.90;;
25922;SDS011;13725;51.170;4.442;2022-09-16T02:12:54;7.07;;;1.10;;
25922;SDS011;13725;51.170;4.442;2022-09-16T02:15:25;2.65;;;0.85;;
25922;SDS011;13725;51.170;4.442;2022-09-16T02:18:13;4.43;;;0.90;;
25922;SDS011;13725;51.170;4.442;2022-09-16T02:20:44;5.30;;;1.40;;
25922;SDS011;13725;51.170;4.442;2022-09-16T02:23:22;5.72;;;0.95;;
25922;SDS011;13725;51.170;4.442;2022-09-16T02:25:51;2.90;;;0.50;;
25922;SDS011;13725;51.170;4.442;2022-09-16T02:28:20;2.35;;;0.90;;
25922;SDS011;13725;51.170;4.442;2022-09-16T02:30:55;4.85;;;1.10;;
25922;SDS011;13725;51.170;4.442;2022-09-16T02:33:26;4.03;;;0.70;;
25922;SDS011;13725;51.170;4.442;2022-09-16T02:35:55;3.80;;;0.75;;
25922;SDS011;13725;51.170;4.442;2022-09-16T02:38:28;4.55;;;1.20;;
25922;SDS011;13725;51.170;4.442;2022-09-16T02:40:59;5.57;;;0.90;;
25922;SDS011;13725;51.170;4.442;2022-09-16T02:43:26;4.03;;;0.63;;
25922;SDS011;13725;51.170;4.442;2022-09-16T02:46:06;4.80;;;0.77;;
25922;SDS011;13725;51.170;4.442;2022-09-16T02:49:01;8.70;;;0.85;;
25922;SDS011;13725;51.170;4.442;2022-09-16T02:51:55;4.80;;;1.10;;
25922;SDS011;13725;51.170;4.442;2022-09-16T02:57:35;8.40;;;1.80;;
25922;SDS011;13725;51.170;4.442;2022-09-16T03:00:03;2.30;;;0.70;;
25922;SDS011;13725;51.170;4.442;2022-09-16T03:02:31;8.95;;;1.75;;
25922;SDS011;13725;51.170;4.442;2022-09-16T03:04:58;4.70;;;0.90;;
25922;SDS011;13725;51.170;4.442;2022-09-16T03:07:24;3.10;;;0.80;;
25922;SDS011;13725;51.170;4.442;2022-09-16T03:09:50;5.13;;;0.68;;
25922;SDS011;13725;51.170;4.442;2022-09-16T03:25:44;4.25;;;0.80;;
25922;SDS011;13725;51.170;4.442;2022-09-16T03:28:21;5.45;;;1.10;;
25922;SDS011;13725;51.170;4.442;2022-09-16T03:33:36;2.30;;;0.95;;
25922;SDS011;13725;51.170;4.442;2022-09-16T03:36:04;11.97;;;1.40;;
25922;SDS011;13725;51.170;4.442;2022-09-16T03:38:34;6.40;;;1.55;;
25922;SDS011;13725;51.170;4.442;2022-09-16T03:41:02;7.55;;;1.77;;
25922;SDS011;13725;51.170;4.442;2022-09-16T03:43:30;6.95;;;1.48;;
25922;SDS011;13725;51.170;4.442;2022-09-16T03:45:55;7.40;;;1.52;;
25922;SDS011;13725;51.170;4.442;2022-09-16T03:48:21;5.95;;;1.17;;
25922;SDS011;13725;51.170;4.442;2022-09-16T03:50:47;3.92;;;0.75;;
25922;SDS011;13725;51.170;4.442;2022-09-16T03:53:13;4.93;;;0.90;;
25922;SDS011;13725;51.170;4.442;2022-09-16T03:55:39;5.90;;;1.13;;
25922;SDS011;13725;51.170;4.442;2022-09-16T03:58:04;7.97;;;1.10;;
25922;SDS011;13725;51.170;4.442;2022-09-16T04:00:30;5.35;;;0.65;;
25922;SDS011;13725;51.170;4.442;2022-09-16T04:02:58;6.53;;;1.25;;
25922;SDS011;13725;51.170;4.442;2022-09-16T04:05:25;4.28;;;0.90;;
25922;SDS011;13725;51.170;4.442;2022-09-16T04:07:51;3.30;;;1.00;;
25922;SDS011;13725;51.170;4.442;2022-09-16T04:10:17;5.05;;;0.70;;
25922;SDS011;13725;51.170;4.442;2022-09-16T04:12:43;7.35;;;0.90;;
25922;SDS011;13725;51.170;4.442;2022-09-16T04:15:09;4.85;;;0.88;;
25922;SDS011;13725;51.170;4.442;2022-09-16T04:17:36;4.18;;;1.02;;
25922;SDS011;13725;51.170;4.442;2022-09-16T04:20:02;3.80;;;0.90;;
25922;SDS011;13725;51.170;4.442;2022-09-16T04:22:30;4.80;;;1.02;;
25922;SDS011;13725;51.170;4.442;2022-09-16T04:24:56;4.82;;;0.80;;
25922;SDS011;13725;51.170;4.442;2022-09-16T04:27:22;2.00;;;0.70;;
25922;SDS011;13725;51.170;4.442;2022-09-16T04:29:48;5.60;;;0.70;;
25922;SDS011;13725;51.170;4.442;2022-09-16T04:32:14;2.88;;;0.68;;
25922;SDS011;13725;51.170;4.442;2022-09-16T04:34:39;7.55;;;1.08;;
25922;SDS011;13725;51.170;4.442;2022-09-16T04:37:05;3.28;;;0.77;;
25922;SDS011;13725;51.170;4.442;2022-09-16T04:39:31;6.95;;;0.82;;
25922;SDS011;13725;51.170;4.442;2022-09-16T04:41:57;3.55;;;0.88;;
25922;SDS011;13725;51.170;4.442;2022-09-16T04:44:25;5.20;;;0.77;;
25922;SDS011;13725;51.170;4.442;2022-09-16T04:46:52;6.38;;;0.60;;
25922;SDS011;13725;51.170;4.442;2022-09-16T04:49:19;5.70;;;0.80;;
25922;SDS011;13725;51.170;4.442;2022-09-16T04:51:44;3.75;;;0.70;;
25922;SDS011;13725;51.170;4.442;2022-09-16T04:54:10;6.10;;;0.98;;
25922;SDS011;13725;51.170;4.442;2022-09-16T04:56:36;11.98;;;1.20;;
25922;SDS011;13725;51.170;4.442;2022-09-16T04:59:02;6.25;;;1.45;;
25922;SDS011;13725;51.170;4.442;2022-09-16T05:01:30;12.00;;;1.08;;
25922;SDS011;13725;51.170;4.442;2022-09-16T05:03:59;7.05;;;1.05;;
25922;SDS011;13725;51.170;4.442;2022-09-16T05:06:31;3.65;;;1.33;;
25922;SDS011;13725;51.170;4.442;2022-09-16T05:09:01;3.55;;;0.68;;
25922;SDS011;13725;51.170;4.442;2022-09-16T05:11:28;4.30;;;0.82;;
25922;SDS011;13725;51.170;4.442;2022-09-16T05:13:59;3.00;;;0.77;;
25922;SDS011;13725;51.170;4.442;2022-09-16T05:16:26;4.50;;;0.90;;
25922;SDS011;13725;51.170;4.442;2022-09-16T05:18:53;6.68;;;1.23;;
25922;SDS011;13725;51.170;4.442;2022-09-16T05:21:21;3.30;;;1.27;;
25922;SDS011;13725;51.170;4.442;2022-09-16T05:23:48;7.15;;;1.02;;
25922;SDS011;13725;51.170;4.442;2022-09-16T05:26:19;7.72;;;1.55;;
25922;SDS011;13725;51.170;4.442;2022-09-16T05:28:46;8.00;;;1.88;;
25922;SDS011;13725;51.170;4.442;2022-09-16T05:31:13;5.03;;;1.33;;
25922;SDS011;13725;51.170;4.442;2022-09-16T05:33:42;5.68;;;1.40;;
25922;SDS011;13725;51.170;4.442;2022-09-16T05:36:11;2.55;;;0.93;;
25922;SDS011;13725;51.170;4.442;2022-09-16T05:38:38;4.53;;;0.93;;
25922;SDS011;13725;51.170;4.442;2022-09-16T05:41:05;9.05;;;1.25;;
25922;SDS011;13725;51.170;4.442;2022-09-16T05:43:31;6.63;;;1.20;;
25922;SDS011;13725;51.170;4.442;2022-09-16T05:45:58;6.15;;;1.00;;
25922;SDS011;13725;51.170;4.442;2022-09-16T05:48:24;4.03;;;1.20;;
25922;SDS011;13725;51.170;4.442;2022-09-16T05:51:00;4.97;;;0.88;;
25922;SDS011;13725;51.170;4.442;2022-09-16T05:53:28;6.57;;;0.80;;
25922;SDS011;13725;51.170;4.442;2022-09-16T05:55:59;3.88;;;1.55;;
25922;SDS011;13725;51.170;4.442;2022-09-16T05:58:27;4.43;;;0.90;;
25922;SDS011;13725;51.170;4.442;2022-09-16T06:00:57;3.10;;;1.00;;
25922;SDS011;13725;51.170;4.442;2022-09-16T06:03:24;7.25;;;1.05;;
25922;SDS011;13725;51.170;4.442;2022-09-16T06:05:51;7.88;;;1.25;;
25922;SDS011;13725;51.170;4.442;2022-09-16T06:08:22;6.03;;;1.35;;
25922;SDS011;13725;51.170;4.442;2022-09-16T06:10:48;6.07;;;1.42;;
25922;SDS011;13725;51.170;4.442;2022-09-16T06:13:14;4.70;;;1.27;;
25922;SDS011;13725;51.170;4.442;2022-09-16T06:15:46;2.72;;;1.15;;
25922;SDS011;13725;51.170;4.442;2022-09-16T06:18:14;8.60;;;1.30;;
25922;SDS011;13725;51.170;4.442;2022-09-16T06:20:40;9.15;;;1.55;;
25922;SDS011;13725;51.170;4.442;2022-09-16T06:23:06;3.72;;;0.93;;
25922;SDS011;13725;51.170;4.442;2022-09-16T06:25:31;9.32;;;1.40;;
25922;SDS011;13725;51.170;4.442;2022-09-16T06:27:58;3.83;;;1.30;;
25922;SDS011;13725;51.170;4.442;2022-09-16T06:30:24;6.55;;;1.60;;
25922;SDS011;13725;51.170;4.442;2022-09-16T06:32:49;3.85;;;1.40;;
25922;SDS011;13725;51.170;4.442;2022-09-16T06:35:15;8.95;;;1.27;;
25922;SDS011;13725;51.170;4.442;2022-09-16T06:37:41;9.93;;;1.58;;
25922;SDS011;13725;51.170;4.442;2022-09-16T06:40:07;7.72;;;2.17;;
25922;SDS011;13725;51.170;4.442;2022-09-16T06:42:33;6.95;;;1.40;;
25922;SDS011;13725;51.170;4.442;2022-09-16T06:45:02;6.07;;;1.05;;
25922;SDS011;13725;51.170;4.442;2022-09-16T06:47:30;5.72;;;1.13;;
25922;SDS011;13725;51.170;4.442;2022-09-16T06:50:00;7.57;;;1.25;;
25922;SDS011;13725;51.170;4.442;2022-09-16T06:52:26;5.20;;;1.27;;
25922;SDS011;13725;51.170;4.442;2022-09-16T06:54:52;6.85;;;1.30;;
25922;SDS011;13725;51.170;4.442;2022-09-16T06:57:19;8.23;;;1.30;;
25922;SDS011;13725;51.170;4.442;2022-09-16T06:59:47;7.50;;;2.03;;
25922;SDS011;13725;51.170;4.442;2022-09-16T07:02:14;10.57;;;1.48;;
25922;SDS011;13725;51.170;4.442;2022-09-16T07:04:40;6.15;;;1.75;;
25922;SDS011;13725;51.170;4.442;2022-09-16T07:07:06;6.18;;;1.92;;
25922;SDS011;13725;51.170;4.442;2022-09-16T07:09:32;9.55;;;3.08;;
25922;SDS011;13725;51.170;4.442;2022-09-16T07:11:59;6.00;;;1.70;;
25922;SDS011;13725;51.170;4.442;2022-09-16T07:14:25;5.60;;;1.52;;
25922;SDS011;13725;51.170;4.442;2022-09-16T07:16:52;6.15;;;1.35;;
25922;SDS011;13725;51.170;4.442;2022-09-16T07:19:18;7.00;;;1.85;;
25922;SDS011;13725;51.170;4.442;2022-09-16T07:21:44;8.85;;;1.42;;
25922;SDS011;13725;51.170;4.442;2022-09-16T07:24:11;8.10;;;1.52;;
25922;SDS011;13725;51.170;4.442;2022-09-16T07:26:37;4.82;;;1.63;;
25922;SDS011;13725;51.170;4.442;2022-09-16T07:29:05;6.82;;;1.50;;
25922;SDS011;13725;51.170;4.442;2022-09-16T07:31:34;5.38;;;1.63;;
25922;SDS011;13725;51.170;4.442;2022-09-16T07:34:02;9.73;;;2.10;;
25922;SDS011;13725;51.170;4.442;2022-09-16T07:36:31;6.47;;;1.60;;
25922;SDS011;13725;51.170;4.442;2022-09-16T07:39:00;11.13;;;1.60;;
25922;SDS011;13725;51.170;4.442;2022-09-16T07:41:28;9.52;;;2.03;;
25922;SDS011;13725;51.170;4.442;2022-09-16T07:43:56;7.43;;;1.40;;
25922;SDS011;13725;51.170;4.442;2022-09-16T07:46:24;7.70;;;1.50;;
25922;SDS011;13725;51.170;4.442;2022-09-16T07:48:51;8.77;;;2.00;;
25922;SDS011;13725;51.170;4.442;2022-09-16T07:51:19;8.70;;;1.27;;
25922;SDS011;13725;51.170;4.442;2022-09-16T07:53:47;7.85;;;1.50;;
25922;SDS011;13725;51.170;4.442;2022-09-16T07:56:18;7.15;;;2.00;;
25922;SDS011;13725;51.170;4.442;2022-09-16T07:58:46;8.27;;;1.60;;
25922;SDS011;13725;51.170;4.442;2022-09-16T08:01:12;9.02;;;2.45;;
25922;SDS011;13725;51.170;4.442;2022-09-16T08:03:40;11.52;;;1.80;;
25922;SDS011;13725;51.170;4.442;2022-09-16T08:06:08;6.47;;;1.52;;
25922;SDS011;13725;51.170;4.442;2022-09-16T08:08:38;8.00;;;1.30;;
25922;SDS011;13725;51.170;4.442;2022-09-16T08:11:05;5.30;;;1.20;;
25922;SDS011;13725;51.170;4.442;2022-09-16T08:13:32;5.88;;;1.13;;
25922;SDS011;13725;51.170;4.442;2022-09-16T08:16:00;7.30;;;1.13;;
25922;SDS011;13725;51.170;4.442;2022-09-16T08:18:36;4.93;;;1.73;;
25922;SDS011;13725;51.170;4.442;2022-09-16T08:21:14;4.80;;;1.30;;
25922;SDS011;13725;51.170;4.442;2022-09-16T08:23:42;8.57;;;1.23;;
25922;SDS011;13725;51.170;4.442;2022-09-16T08:26:08;6.65;;;1.60;;
25922;SDS011;13725;51.170;4.442;2022-09-16T08:28:36;8.02;;;1.60;;
25922;SDS011;13725;51.170;4.442;2022-09-16T08:31:03;7.30;;;1.23;;
25922;SDS011;13725;51.170;4.442;2022-09-16T08:33:30;5.95;;;1.27;;
25922;SDS011;13725;51.170;4.442;2022-09-16T08:36:06;5.00;;;1.23;;
25922;SDS011;13725;51.170;4.442;2022-09-16T08:38:35;7.15;;;1.60;;
25922;SDS011;13725;51.170;4.442;2022-09-16T08:41:05;4.32;;;1.23;;
25922;SDS011;13725;51.170;4.442;2022-09-16T08:43:57;10.82;;;2.10;;
25922;SDS011;13725;51.170;4.442;2022-09-16T08:51:28;4.80;;;1.55;;
25922;SDS011;13725;51.170;4.442;2022-09-16T08:54:05;10.05;;;1.40;;
25922;SDS011;13725;51.170;4.442;2022-09-16T08:56:35;6.13;;;1.25;;
25922;SDS011;13725;51.170;4.442;2022-09-16T08:59:03;5.35;;;1.00;;
25922;SDS011;13725;51.170;4.442;2022-09-16T09:04:37;10.10;;;1.10;;
25922;SDS011;13725;51.170;4.442;2022-09-16T09:12:44;8.27;;;1.10;;
25922;SDS011;13725;51.170;4.442;2022-09-16T09:15:23;6.45;;;0.90;;
25922;SDS011;13725;51.170;4.442;2022-09-16T09:37:38;2.92;;;0.70;;
25922;SDS011;13725;51.170;4.442;2022-09-16T09:40:45;8.13;;;1.02;;
25922;SDS011;13725;51.170;4.442;2022-09-16T09:43:11;2.47;;;0.50;;
25922;SDS011;13725;51.170;4.442;2022-09-16T09:45:44;6.38;;;0.80;;
25922;SDS011;13725;51.170;4.442;2022-09-16T09:48:29;3.67;;;0.85;;
25922;SDS011;13725;51.170;4.442;2022-09-16T09:51:35;8.38;;;0.90;;
25922;SDS011;13725;51.170;4.442;2022-09-16T09:54:26;3.35;;;0.70;;
25922;SDS011;13725;51.170;4.442;2022-09-16T09:57:01;2.80;;;0.80;;
25922;SDS011;13725;51.170;4.442;2022-09-16T09:59:49;1.98;;;0.50;;
25922;SDS011;13725;51.170;4.442;2022-09-16T10:02:40;3.72;;;0.82;;
25922;SDS011;13725;51.170;4.442;2022-09-16T10:05:17;3.40;;;0.60;;
25922;SDS011;13725;51.170;4.442;2022-09-16T10:07:50;5.13;;;0.63;;
25922;SDS011;13725;51.170;4.442;2022-09-16T10:10:20;8.55;;;1.00;;
25922;SDS011;13725;51.170;4.442;2022-09-16T10:12:48;7.20;;;0.50;;
25922;SDS011;13725;51.170;4.442;2022-09-16T10:15:26;3.88;;;0.47;;
25922;SDS011;13725;51.170;4.442;2022-09-16T10:17:54;4.93;;;0.80;;
25922;SDS011;13725;51.170;4.442;2022-09-16T10:20:28;5.50;;;0.85;;
25922;SDS011;13725;51.170;4.442;2022-09-16T10:22:58;4.05;;;0.65;;
25922;SDS011;13725;51.170;4.442;2022-09-16T10:25:26;6.82;;;0.70;;
25922;SDS011;13725;51.170;4.442;2022-09-16T10:27:57;6.30;;;1.08;;
25922;SDS011;13725;51.170;4.442;2022-09-16T10:30:25;6.63;;;1.63;;
25922;SDS011;13725;51.170;4.442;2022-09-16T10:32:54;4.15;;;0.90;;
25922;SDS011;13725;51.170;4.442;2022-09-16T10:35:32;7.47;;;1.10;;
25922;SDS011;13725;51.170;4.442;2022-09-16T10:40:28;4.88;;;1.02;;
25922;SDS011;13725;51.170;4.442;2022-09-16T10:42:56;3.25;;;0.73;;
25922;SDS011;13725;51.170;4.442;2022-09-16T10:45:32;7.88;;;1.00;;
25922;SDS011;13725;51.170;4.442;2022-09-16T10:48:03;11.07;;;1.13;;
25922;SDS011;13725;51.170;4.442;2022-09-16T10:50:36;5.55;;;0.85;;
25922;SDS011;13725;51.170;4.442;2022-09-16T10:53:01;5.00;;;1.17;;
25922;SDS011;13725;51.170;4.442;2022-09-16T10:55:29;2.75;;;0.77;;
25922;SDS011;13725;51.170;4.442;2022-09-16T11:00:46;5.43;;;1.05;;
25922;SDS011;13725;51.170;4.442;2022-09-16T11:09:34;7.18;;;1.10;;
25922;SDS011;13725;51.170;4.442;2022-09-16T11:15:12;8.13;;;1.25;;
25922;SDS011;13725;51.170;4.442;2022-09-16T11:20:37;7.80;;;0.80;;
25922;SDS011;13725;51.170;4.442;2022-09-16T11:23:12;7.30;;;0.90;;
25922;SDS011;13725;51.170;4.442;2022-09-16T11:26:17;5.00;;;0.90;;
25922;SDS011;13725;51.170;4.442;2022-09-16T11:29:36;4.03;;;0.80;;
25922;SDS011;13725;51.170;4.442;2022-09-16T11:43:09;3.28;;;0.82;;
25922;SDS011;13725;51.170;4.442;2022-09-16T11:51:40;7.30;;;1.15;;
25922;SDS011;13725;51.170;4.442;2022-09-16T11:57:06;3.88;;;0.60;;
25922;SDS011;13725;51.170;4.442;2022-09-16T12:02:43;3.80;;;0.57;;
25922;SDS011;13725;51.170;4.442;2022-09-16T12:05:36;2.45;;;0.70;;
25922;SDS011;13725;51.170;4.442;2022-09-16T12:08:19;2.28;;;0.50;;
25922;SDS011;13725;51.170;4.442;2022-09-16T12:11:08;4.47;;;0.57;;
25922;SDS011;13725;51.170;4.442;2022-09-16T12:13:45;2.47;;;0.45;;
25922;SDS011;13725;51.170;4.442;2022-09-16T12:16:29;2.72;;;0.50;;
25922;SDS011;13725;51.170;4.442;2022-09-16T12:19:33;1.83;;;0.70;;
25922;SDS011;13725;51.170;4.442;2022-09-16T12:22:25;3.53;;;0.82;;
25922;SDS011;13725;51.170;4.442;2022-09-16T12:25:01;2.10;;;0.60;;
25922;SDS011;13725;51.170;4.442;2022-09-16T12:27:34;2.15;;;0.80;;
25922;SDS011;13725;51.170;4.442;2022-09-16T12:30:14;2.95;;;0.90;;
25922;SDS011;13725;51.170;4.442;2022-09-16T12:35:31;3.97;;;0.80;;
25922;SDS011;13725;51.170;4.442;2022-09-16T12:38:00;3.67;;;0.60;;
25922;SDS011;13725;51.170;4.442;2022-09-16T12:40:27;5.50;;;0.70;;
25922;SDS011;13725;51.170;4.442;2022-09-16T12:46:10;4.55;;;0.68;;
25922;SDS011;13725;51.170;4.442;2022-09-16T12:49:18;6.90;;;0.80;;
25922;SDS011;13725;51.170;4.442;2022-09-16T13:02:50;4.15;;;0.80;;
25922;SDS011;13725;51.170;4.442;2022-09-16T13:05:21;7.97;;;1.35;;
25922;SDS011;13725;51.170;4.442;2022-09-16T13:07:52;4.43;;;0.57;;
25922;SDS011;13725;51.170;4.442;2022-09-16T13:10:37;1.52;;;0.30;;
25922;SDS011;13725;51.170;4.442;2022-09-16T13:13:05;2.38;;;0.45;;
25922;SDS011;13725;51.170;4.442;2022-09-16T13:15:37;3.05;;;0.28;;
25922;SDS011;13725;51.170;4.442;2022-09-16T13:18:22;1.52;;;0.22;;
25922;SDS011;13725;51.170;4.442;2022-09-16T13:20:59;0.25;;;0.20;;
25922;SDS011;13725;51.170;4.442;2022-09-16T13:23:32;0.30;;;0.20;;
25922;SDS011;13725;51.170;4.442;2022-09-16T13:33:35;3.78;;;0.40;;
25922;SDS011;13725;51.170;4.442;2022-09-16T13:39:03;3.58;;;0.52;;
25922;SDS011;13725;51.170;4.442;2022-09-16T13:52:23;2.05;;;0.88;;
25922;SDS011;13725;51.170;4.442;2022-09-16T13:54:53;3.33;;;0.30;;
25922;SDS011;13725;51.170;4.442;2022-09-16T14:14:34;4.10;;;0.50;;
25922;SDS011;13725;51.170;4.442;2022-09-16T14:17:01;2.65;;;0.43;;
25922;SDS011;13725;51.170;4.442;2022-09-16T14:19:36;3.65;;;0.40;;
25922;SDS011;13725;51.170;4.442;2022-09-16T14:22:20;2.90;;;0.93;;
25922;SDS011;13725;51.170;4.442;2022-09-16T14:24:47;4.15;;;0.47;;
25922;SDS011;13725;51.170;4.442;2022-09-16T14:29:58;2.15;;;0.40;;
25922;SDS011;13725;51.170;4.442;2022-09-16T14:32:33;0.50;;;0.40;;
25922;SDS011;13725;51.170;4.442;2022-09-16T14:35:02;2.90;;;0.40;;
25922;SDS011;13725;51.170;4.442;2022-09-16T14:37:33;1.08;;;0.40;;
25922;SDS011;13725;51.170;4.442;2022-09-16T14:40:10;4.68;;;0.60;;
25922;SDS011;13725;51.170;4.442;2022-09-16T14:43:21;2.13;;;0.40;;
25922;SDS011;13725;51.170;4.442;2022-09-16T14:45:32;1.13;;;0.43;;
25922;SDS011;13725;51.170;4.442;2022-09-16T14:48:01;2.88;;;0.40;;
25922;SDS011;13725;51.170;4.442;2022-09-16T14:50:32;1.20;;;0.60;;
25922;SDS011;13725;51.170;4.442;2022-09-16T14:53:03;3.10;;;0.60;;
25922;SDS011;13725;51.170;4.442;2022-09-16T14:55:32;3.05;;;0.70;;
25922;SDS011;13725;51.170;4.442;2022-09-16T14:58:01;2.35;;;0.50;;
25922;SDS011;13725;51.170;4.442;2022-09-16T15:00:50;1.65;;;0.40;;
25922;SDS011;13725;51.170;4.442;2022-09-16T15:03:22;3.20;;;0.63;;
25922;SDS011;13725;51.170;4.442;2022-09-16T15:06:22;3.45;;;0.63;;
25922;SDS011;13725;51.170;4.442;2022-09-16T15:11:58;2.70;;;0.68;;
25922;SDS011;13725;51.170;4.442;2022-09-16T15:14:25;6.20;;;0.77;;
25922;SDS011;13725;51.170;4.442;2022-09-16T15:16:53;4.18;;;0.70;;
25922;SDS011;13725;51.170;4.442;2022-09-16T15:19:32;3.55;;;0.50;;
25922;SDS011;13725;51.170;4.442;2022-09-16T15:22:00;4.22;;;0.82;;
25922;SDS011;13725;51.170;4.442;2022-09-16T15:24:27;3.88;;;0.95;;
25922;SDS011;13725;51.170;4.442;2022-09-16T15:26:55;4.88;;;0.60;;
25922;SDS011;13725;51.170;4.442;2022-09-16T15:31:48;5.75;;;1.02;;
25922;SDS011;13725;51.170;4.442;2022-09-16T15:34:19;7.40;;;0.90;;
25922;SDS011;13725;51.170;4.442;2022-09-16T15:36:47;4.28;;;0.75;;
25922;SDS011;13725;51.170;4.442;2022-09-16T15:39:26;7.18;;;0.68;;
25922;SDS011;13725;51.170;4.442;2022-09-16T15:42:07;2.25;;;0.70;;
25922;SDS011;13725;51.170;4.442;2022-09-16T15:44:41;3.30;;;0.50;;
25922;SDS011;13725;51.170;4.442;2022-09-16T15:47:22;9.52;;;1.77;;
25922;SDS011;13725;51.170;4.442;2022-09-16T15:53:02;3.03;;;0.77;;
25922;SDS011;13725;51.170;4.442;2022-09-16T15:58:00;4.20;;;0.65;;
25922;SDS011;13725;51.170;4.442;2022-09-16T16:00:55;4.25;;;0.80;;
25922;SDS011;13725;51.170;4.442;2022-09-16T16:03:25;5.20;;;0.95;;
25922;SDS011;13725;51.170;4.442;2022-09-16T16:05:52;3.50;;;1.00;;
25922;SDS011;13725;51.170;4.442;2022-09-16T16:08:40;4.13;;;1.00;;
25922;SDS011;13725;51.170;4.442;2022-09-16T16:11:13;2.05;;;0.70;;
25922;SDS011;13725;51.170;4.442;2022-09-16T16:13:44;3.17;;;0.73;;
25922;SDS011;13725;51.170;4.442;2022-09-16T16:16:12;5.22;;;0.85;;
25922;SDS011;13725;51.170;4.442;2022-09-16T16:18:39;4.88;;;1.17;;
25922;SDS011;13725;51.170;4.442;2022-09-16T16:21:07;4.88;;;1.15;;
25922;SDS011;13725;51.170;4.442;2022-09-16T16:23:35;4.68;;;0.88;;
25922;SDS011;13725;51.170;4.442;2022-09-16T16:26:05;4.47;;;0.90;;
25922;SDS011;13725;51.170;4.442;2022-09-16T16:28:33;5.90;;;0.98;;
25922;SDS011;13725;51.170;4.442;2022-09-16T16:31:09;6.30;;;1.33;;
25922;SDS011;13725;51.170;4.442;2022-09-16T16:33:43;6.75;;;0.70;;
25922;SDS011;13725;51.170;4.442;2022-09-16T16:36:10;2.83;;;0.77;;
25922;SDS011;13725;51.170;4.442;2022-09-16T16:38:37;5.75;;;0.90;;
25922;SDS011;13725;51.170;4.442;2022-09-16T16:41:04;6.78;;;1.17;;
25922;SDS011;13725;51.170;4.442;2022-09-16T16:43:31;5.13;;;1.45;;
25922;SDS011;13725;51.170;4.442;2022-09-16T16:45:57;3.22;;;0.80;;
25922;SDS011;13725;51.170;4.442;2022-09-16T16:48:25;1.92;;;0.88;;
25922;SDS011;13725;51.170;4.442;2022-09-16T16:50:59;5.40;;;0.80;;
25922;SDS011;13725;51.170;4.442;2022-09-16T16:53:28;7.05;;;1.15;;
25922;SDS011;13725;51.170;4.442;2022-09-16T16:56:00;6.50;;;1.13;;
25922;SDS011;13725;51.170;4.442;2022-09-16T16:58:31;4.43;;;0.95;;
25922;SDS011;13725;51.170;4.442;2022-09-16T17:01:08;4.82;;;1.88;;
25922;SDS011;13725;51.170;4.442;2022-09-16T17:06:00;4.85;;;1.48;;
25922;SDS011;13725;51.170;4.442;2022-09-16T17:08:26;7.15;;;1.15;;
25922;SDS011;13725;51.170;4.442;2022-09-16T17:13:37;5.20;;;1.20;;
25922;SDS011;13725;51.170;4.442;2022-09-16T17:16:05;6.50;;;1.40;;
25922;SDS011;13725;51.170;4.442;2022-09-16T17:18:33;6.85;;;1.40;;
25922;SDS011;13725;51.170;4.442;2022-09-16T17:21:03;9.45;;;1.17;;
25922;SDS011;13725;51.170;4.442;2022-09-16T17:23:31;6.10;;;1.20;;
25922;SDS011;13725;51.170;4.442;2022-09-16T17:25:58;9.00;;;1.90;;
25922;SDS011;13725;51.170;4.442;2022-09-16T17:28:24;6.88;;;1.45;;
25922;SDS011;13725;51.170;4.442;2022-09-16T17:30:50;10.70;;;3.95;;
25922;SDS011;13725;51.170;4.442;2022-09-16T17:33:16;5.68;;;2.72;;
25922;SDS011;13725;51.170;4.442;2022-09-16T17:35:42;6.90;;;1.88;;
25922;SDS011;13725;51.170;4.442;2022-09-16T17:38:08;11.38;;;1.63;;
25922;SDS011;13725;51.170;4.442;2022-09-16T17:40:34;11.50;;;2.50;;
25922;SDS011;13725;51.170;4.442;2022-09-16T17:43:00;6.35;;;1.40;;
25922;SDS011;13725;51.170;4.442;2022-09-16T17:45:26;5.00;;;1.38;;
25922;SDS011;13725;51.170;4.442;2022-09-16T17:47:52;7.68;;;2.00;;
25922;SDS011;13725;51.170;4.442;2022-09-16T17:50:19;6.43;;;1.60;;
25922;SDS011;13725;51.170;4.442;2022-09-16T17:52:45;9.25;;;1.67;;
25922;SDS011;13725;51.170;4.442;2022-09-16T17:55:11;5.35;;;1.15;;
25922;SDS011;13725;51.170;4.442;2022-09-16T17:57:37;3.92;;;0.95;;
25922;SDS011;13725;51.170;4.442;2022-09-16T18:00:03;4.75;;;1.23;;
25922;SDS011;13725;51.170;4.442;2022-09-16T18:02:37;7.45;;;1.27;;
25922;SDS011;13725;51.170;4.442;2022-09-16T18:05:03;5.28;;;1.42;;
25922;SDS011;13725;51.170;4.442;2022-09-16T18:07:29;9.00;;;2.10;;
25922;SDS011;13725;51.170;4.442;2022-09-16T18:09:55;5.38;;;1.40;;
25922;SDS011;13725;51.170;4.442;2022-09-16T18:12:20;3.20;;;1.65;;
25922;SDS011;13725;51.170;4.442;2022-09-16T18:14:46;5.80;;;1.50;;
25922;SDS011;13725;51.170;4.442;2022-09-16T18:17:12;5.53;;;1.30;;
25922;SDS011;13725;51.170;4.442;2022-09-16T18:19:38;3.75;;;1.13;;
25922;SDS011;13725;51.170;4.442;2022-09-16T18:22:04;5.60;;;1.85;;